Laguepe — 9HAI9 — position and weather

sailwx.info

Track history (hours):
 
Tides and Currents Weather Stations Pressure Air Temp Water Temp Dewpoint Dewpoint Depression Visibility Wind Speed Wind Dir Waves Ship Positions

Laguepe

Last reported at 2017-Aug-17 09:30 UTC. Time now 2017-Aug-17 09:55 UTC.
Position N 43°23' E 004°48'.

Length 81 m; draft 2.8 m.

Type: Cargo ship. MMSI: 256681000.

Date/timePositionNaut miles runAvg speedWind from/ knotsBaromVisibWave heightAir tempDewpointWater temp
2017-Aug-17 09:30N 43°23' E 004°48'0 0.0
2017-Aug-17 09:01N 43°23' E 004°48'0 0.3
2017-Aug-17 08:31N 43°23' E 004°48'4 8.9
2017-Aug-17 08:01N 43°26' E 004°44'4 8.8
2017-Aug-17 07:30N 43°31' E 004°44'4 8.8
2017-Aug-17 07:00N 43°34' E 004°41'4 8.3
2017-Aug-17 06:30N 43°38' E 004°38'4 6.5
2017-Aug-17 05:54N 43°42' E 004°38'8 5.3
2017-Aug-17 04:26N 43°49' E 004°38'3 0.7
2017-Aug-17 00:47N 43°52' E 004°38'0 0.0
2017-Aug-17 00:21N 43°52' E 004°38'0 0.0
2017-Aug-16 23:55N 43°52' E 004°38'0 0.0
2017-Aug-16 23:04N 43°52' E 004°38'0 0.0
2017-Aug-16 22:52N 43°52' E 004°38'0 0.0
2017-Aug-16 22:28N 43°52' E 004°38'0 0.0
2017-Aug-16 21:58N 43°52' E 004°38'0 0.0
2017-Aug-16 21:26N 43°52' E 004°38'0 0.0
2017-Aug-16 21:00N 43°52' E 004°38'0 0.9
2017-Aug-16 20:31N 43°52' E 004°39'  
2017-Aug-09 06:24N 43°34' E 004°42'3 7.4
2017-Aug-09 06:00N 43°31' E 004°44'4 7.3
2017-Aug-09 05:26N 43°27' E 004°45'5 6.2
2017-Aug-09 04:37N 43°23' E 004°48'0 1.2
2017-Aug-09 04:27N 43°23' E 004°49'2 2.2
2017-Aug-09 03:39N 43°23' E 004°51'2 6.9
2017-Aug-09 03:18N 43°24' E 004°54'2 8.0
2017-Aug-09 03:00N 43°23' E 004°57'3 6.2
2017-Aug-09 02:30N 43°20' E 004°59'2 4.2
2017-Aug-09 02:01N 43°18' E 005°01'4 5.9
2017-Aug-09 01:22N 43°17' E 005°06'5 7.4
2017-Aug-09 00:38N 43°14' E 005°12'1 7.9
2017-Aug-09 00:30N 43°13' E 005°13'5 8.0
2017-Aug-08 23:55N 43°11' E 005°19'4 8.3
2017-Aug-08 23:28N 43°09' E 005°23'35 8.1
2017-Aug-08 19:08N 42°58' E 006°09'2 8.2
2017-Aug-08 18:55N 42°58' E 006°11'33 7.0
2017-Aug-08 14:12N 43°13' E 006°51'1 7.5
2017-Aug-08 14:00N 43°15' E 006°52'6 7.2
2017-Aug-08 13:13N 43°19' E 006°58'2 7.2
2017-Aug-08 13:00N 43°20' E 006°59'4 7.2
2017-Aug-08 12:30N 43°22' E 007°03'4 7.2
2017-Aug-08 12:00N 43°25' E 007°06'4 7.4
2017-Aug-08 11:30N 43°27' E 007°10'3 5.3
2017-Aug-08 11:00N 43°29' E 007°13'0 0.8
2017-Aug-08 10:30N 43°29' E 007°13'0 0.9
2017-Aug-08 10:00N 43°29' E 007°14'0 1.0
2017-Aug-08 09:30N 43°29' E 007°15'0 1.0
2017-Aug-08 09:00N 43°29' E 007°15'0 0.9
2017-Aug-08 08:30N 43°29' E 007°16'0 0.8
2017-Aug-08 08:00N 43°30' E 007°16'0 0.8
2017-Aug-08 07:29N 43°30' E 007°17'0 1.0
2017-Aug-08 07:00N 43°30' E 007°17'1 1.3
2017-Aug-08 06:30N 43°30' E 007°18'2 3.7
2017-Aug-08 05:58N 43°31' E 007°20'4 9.5
2017-Aug-08 05:30N 43°34' E 007°26'17 9.4
2017-Aug-08 03:44N 43°42' E 007°46'2 9.4
2017-Aug-08 03:30N 43°42' E 007°49'6 9.4
2017-Aug-08 02:50N 43°45' E 007°57'3 9.4
2017-Aug-08 02:30N 43°45' E 008°01'5 9.4
2017-Aug-08 01:56N 43°47' E 008°08'4 9.3
2017-Aug-08 01:30N 43°48' E 008°14'5 9.2
2017-Aug-08 01:00N 43°49' E 008°20'5 9.0
2017-Aug-08 00:30N 43°50' E 008°26'4 8.7
2017-Aug-08 00:00N 43°51' E 008°32'4 8.7
2017-Aug-07 23:30N 43°52' E 008°38'4 8.7
2017-Aug-07 23:00N 43°53' E 008°44'4 8.5
2017-Aug-07 22:30N 43°53' E 008°49'4 8.4
2017-Aug-07 22:00N 43°54' E 008°55'4 8.5
2017-Aug-07 21:30N 43°54' E 009°01'4 8.6
2017-Aug-07 21:00N 43°54' E 009°07'4 8.6
2017-Aug-07 20:30N 43°54' E 009°13'4 7.6
2017-Aug-07 20:00N 43°55' E 009°18'4 8.6
2017-Aug-07 19:30N 43°55' E 009°24'4 8.6
2017-Aug-07 19:00N 43°55' E 009°30'4 8.5
2017-Aug-07 18:30N 43°56' E 009°36'4 8.6
2017-Aug-07 18:00N 43°57' E 009°42'4 8.6
2017-Aug-07 17:30N 43°59' E 009°47'4 8.0
2017-Aug-07 17:00N 44°01' E 009°52'4 8.1
2017-Aug-07 16:30N 44°05' E 009°51'2 3.4
2017-Aug-07 16:00N 44°06' E 009°50'0 0.0
2017-Aug-07 15:30N 44°06' E 009°50'0 0.0
2017-Aug-07 15:00N 44°06' E 009°50'0 0.0
2017-Aug-07 14:30N 44°06' E 009°50'0 0.0
2017-Aug-07 14:00N 44°06' E 009°50'0 0.0
2017-Aug-07 13:30N 44°06' E 009°50'0 0.0
2017-Aug-07 13:00N 44°06' E 009°50'0 0.0
2017-Aug-07 12:30N 44°06' E 009°50'0 0.0
2017-Aug-07 12:00N 44°06' E 009°50'0 0.0
2017-Aug-07 11:30N 44°06' E 009°50'0 0.0
2017-Aug-07 11:00N 44°06' E 009°50'0 0.0
2017-Aug-07 10:30N 44°06' E 009°50'0 0.0
2017-Aug-07 10:00N 44°06' E 009°50'  
Track history (hours):
 
Tides and Currents Weather Stations Pressure Air Temp Water Temp Dewpoint Dewpoint Depression Visibility Wind Speed Wind Dir Waves Ship Positions

Laguepe

Last reported at 2017-Aug-17 09:30 UTC. Time now 2017-Aug-17 09:55 UTC.
Position N 43°23' E 004°48'.

Length 81 m; draft 2.8 m.

Type: Cargo ship. MMSI: 256681000.

Date/timePositionNaut miles runAvg speedWind from/ knotsBaromVisibWave heightAir tempDewpointWater temp
2017-Aug-17 09:30N 43°23' E 004°48'0 0.0
2017-Aug-17 09:01N 43°23' E 004°48'0 0.3
2017-Aug-17 08:31N 43°23' E 004°48'4 8.9
2017-Aug-17 08:01N 43°26' E 004°44'4 8.8
2017-Aug-17 07:30N 43°31' E 004°44'4 8.8
2017-Aug-17 07:00N 43°34' E 004°41'4 8.3
2017-Aug-17 06:30N 43°38' E 004°38'4 6.5
2017-Aug-17 05:54N 43°42' E 004°38'8 5.3
2017-Aug-17 04:26N 43°49' E 004°38'3 0.7
2017-Aug-17 00:47N 43°52' E 004°38'0 0.0
2017-Aug-17 00:21N 43°52' E 004°38'0 0.0
2017-Aug-16 23:55N 43°52' E 004°38'0 0.0
2017-Aug-16 23:04N 43°52' E 004°38'0 0.0
2017-Aug-16 22:52N 43°52' E 004°38'0 0.0
2017-Aug-16 22:28N 43°52' E 004°38'0 0.0
2017-Aug-16 21:58N 43°52' E 004°38'0 0.0
2017-Aug-16 21:26N 43°52' E 004°38'0 0.0
2017-Aug-16 21:00N 43°52' E 004°38'0 0.9
2017-Aug-16 20:31N 43°52' E 004°39'  
2017-Aug-09 06:24N 43°34' E 004°42'3 7.4
2017-Aug-09 06:00N 43°31' E 004°44'4 7.3
2017-Aug-09 05:26N 43°27' E 004°45'5 6.2
2017-Aug-09 04:37N 43°23' E 004°48'0 1.2
2017-Aug-09 04:27N 43°23' E 004°49'2 2.2
2017-Aug-09 03:39N 43°23' E 004°51'2 6.9
2017-Aug-09 03:18N 43°24' E 004°54'2 8.0
2017-Aug-09 03:00N 43°23' E 004°57'3 6.2
2017-Aug-09 02:30N 43°20' E 004°59'2 4.2
2017-Aug-09 02:01N 43°18' E 005°01'4 5.9
2017-Aug-09 01:22N 43°17' E 005°06'5 7.4
2017-Aug-09 00:38N 43°14' E 005°12'1 7.9
2017-Aug-09 00:30N 43°13' E 005°13'5 8.0
2017-Aug-08 23:55N 43°11' E 005°19'4 8.3
2017-Aug-08 23:28N 43°09' E 005°23'35 8.1
2017-Aug-08 19:08N 42°58' E 006°09'2 8.2
2017-Aug-08 18:55N 42°58' E 006°11'33 7.0
2017-Aug-08 14:12N 43°13' E 006°51'1 7.5
2017-Aug-08 14:00N 43°15' E 006°52'6 7.2
2017-Aug-08 13:13N 43°19' E 006°58'2 7.2
2017-Aug-08 13:00N 43°20' E 006°59'4 7.2
2017-Aug-08 12:30N 43°22' E 007°03'4 7.2
2017-Aug-08 12:00N 43°25' E 007°06'4 7.4
2017-Aug-08 11:30N 43°27' E 007°10'3 5.3
2017-Aug-08 11:00N 43°29' E 007°13'0 0.8
2017-Aug-08 10:30N 43°29' E 007°13'0 0.9
2017-Aug-08 10:00N 43°29' E 007°14'0 1.0
2017-Aug-08 09:30N 43°29' E 007°15'0 1.0
2017-Aug-08 09:00N 43°29' E 007°15'0 0.9
2017-Aug-08 08:30N 43°29' E 007°16'0 0.8
2017-Aug-08 08:00N 43°30' E 007°16'0 0.8
2017-Aug-08 07:29N 43°30' E 007°17'0 1.0
2017-Aug-08 07:00N 43°30' E 007°17'1 1.3
2017-Aug-08 06:30N 43°30' E 007°18'2 3.7
2017-Aug-08 05:58N 43°31' E 007°20'4 9.5
2017-Aug-08 05:30N 43°34' E 007°26'17 9.4
2017-Aug-08 03:44N 43°42' E 007°46'2 9.4
2017-Aug-08 03:30N 43°42' E 007°49'6 9.4
2017-Aug-08 02:50N 43°45' E 007°57'3 9.4
2017-Aug-08 02:30N 43°45' E 008°01'5 9.4
2017-Aug-08 01:56N 43°47' E 008°08'4 9.3
2017-Aug-08 01:30N 43°48' E 008°14'5 9.2
2017-Aug-08 01:00N 43°49' E 008°20'5 9.0
2017-Aug-08 00:30N 43°50' E 008°26'4 8.7
2017-Aug-08 00:00N 43°51' E 008°32'4 8.7
2017-Aug-07 23:30N 43°52' E 008°38'4 8.7
2017-Aug-07 23:00N 43°53' E 008°44'4 8.5
2017-Aug-07 22:30N 43°53' E 008°49'4 8.4
2017-Aug-07 22:00N 43°54' E 008°55'4 8.5
2017-Aug-07 21:30N 43°54' E 009°01'4 8.6
2017-Aug-07 21:00N 43°54' E 009°07'4 8.6
2017-Aug-07 20:30N 43°54' E 009°13'4 7.6
2017-Aug-07 20:00N 43°55' E 009°18'4 8.6
2017-Aug-07 19:30N 43°55' E 009°24'4 8.6
2017-Aug-07 19:00N 43°55' E 009°30'4 8.5
2017-Aug-07 18:30N 43°56' E 009°36'4 8.6
2017-Aug-07 18:00N 43°57' E 009°42'4 8.6
2017-Aug-07 17:30N 43°59' E 009°47'4 8.0
2017-Aug-07 17:00N 44°01' E 009°52'4 8.1
2017-Aug-07 16:30N 44°05' E 009°51'2 3.4
2017-Aug-07 16:00N 44°06' E 009°50'0 0.0
2017-Aug-07 15:30N 44°06' E 009°50'0 0.0
2017-Aug-07 15:00N 44°06' E 009°50'0 0.0
2017-Aug-07 14:30N 44°06' E 009°50'0 0.0
2017-Aug-07 14:00N 44°06' E 009°50'0 0.0
2017-Aug-07 13:30N 44°06' E 009°50'0 0.0
2017-Aug-07 13:00N 44°06' E 009°50'0 0.0
2017-Aug-07 12:30N 44°06' E 009°50'0 0.0
2017-Aug-07 12:00N 44°06' E 009°50'0 0.0
2017-Aug-07 11:30N 44°06' E 009°50'0 0.0
2017-Aug-07 11:00N 44°06' E 009°50'0 0.0
2017-Aug-07 10:30N 44°06' E 009°50'0 0.0
2017-Aug-07 10:00N 44°06' E 009°50'  

Dump ship's entire track history